Flight Track Log - Related Links

Times and Time Zones

All times are in EDT time to prevent confusion due to time zone crossing. See the EJA922 flight status page for this flight to view local times or setup timezone preferences in your user account.

Time Position Orientation Groundspeed Altitude Reporting Facility
EDT Latitude Longitude Course Direction KTS km/h meters Rate Location/Type
Mon 20:06:08 34.1500 -118.4167 231° Southwest 248 459 1,768  Level Southern California TRACON
Mon 20:07:06 34.1817 -118.4533 316° Northwest 246 455 2,743 792 Climbing Los Angeles Center
Mon 20:08:08 34.1864 -118.3761 86° East 269 499 3,353 295 Climbing Los Angeles Center
Mon 20:09:10 34.1467 -118.2703 114° Southeast 339 628 3,353  Level Los Angeles Center
Mon 20:10:11 34.0497 -118.2058 151° Southeast 387 716 3,353  Level Los Angeles Center
Mon 20:11:13 33.9447 -118.1456 155° Southeast 409 758 3,353  Level Los Angeles Center
Mon 20:12:09 33.8333 -118.0833 155° Southeast 388 719 3,353  Level Southern California TRACON
Mon 20:13:10 33.7500 -118.0167 146° Southeast 410 760 3,353 -91 Level Southern California TRACON
Mon 20:14:10 33.7000 -117.9500 132° Southeast 275 509 3,170 -290 Descending Southern California TRACON
Mon 20:15:10 33.6333 -117.8833 140° Southeast 288 533 2,774 -274 Descending Southern California TRACON
Mon 20:16:10 33.5833 -117.8167 132° Southeast 289 536 2,621 -290 Descending Southern California TRACON
Mon 20:17:10 33.5167 -117.7500 140° Southeast 286 529 2,195 -457 Descending Southern California TRACON
Mon 20:18:10 33.4667 -117.6833 132° Southeast 282 523 1,707 -335 Descending Southern California TRACON
Mon 20:19:10 33.4167 -117.6167 132° Southeast 273 505 1,524 -108 Descending Southern California TRACON
Mon 20:19:52 33.3917 -117.5931 142° Southeast 278 515 1,524  Level Los Angeles Center
Mon 20:20:54 33.3275 -117.5172 135° Southeast 273 505 1,524 -30 Level Los Angeles Center
Mon 20:21:56 33.2739 -117.4533 135° Southeast 273 505 1,463 -177 Descending Los Angeles Center
Mon 20:22:58 33.2181 -117.3867 135° Southeast 253 468 1,158 -339 Descending Los Angeles Center
Mon 20:24:00 33.1742 -117.3333 135° Southeast 237 439 762 -295 Descending Los Angeles Center
Mon 20:25:02 33.1683 -117.2636 96° East 239 443 549 -97 Descending Los Angeles Center
Mon 20:26:12 33.1500 -117.2167 115° Southeast 145 269 549 -108 Level Southern California TRACON
Mon 20:27:18 33.1333 -117.2500 239° Southwest 133 246 305 -222 Descending Southern California TRACON

Login

Don't have an account? Register now (free) for customized features, flight alerts, and more!